Time;durP1;ratioP1;P1;durP2;ratioP2;P2;SDS_P1;SDS_P2;PMS_P1;PMS_P2;Temp;Humidity;BMP_temperature;BMP_pressure;BME280_temperature;BME280_humidity;BME280_pressure;Samples;Min_cycle;Max_cycle;Signal;HPM_P1;HPM_P2
2024/02/09 00:00:12;;;;;;;15.75;5.35;;;;;;;13.36;68.21;98721.41;4967825;28;124060;-80
2024/02/09 00:02:42;;;;;;;16.13;5.38;;;;;;;13.35;68.19;98712.59;4966272;28;123495;-80
2024/02/09 00:05:14;;;;;;;16.75;5.38;;;;;;;13.35;67.86;98714.41;4958799;28;114641;-80
2024/02/09 00:07:48;;;;;;;14.52;5.10;;;;;;;13.34;68.24;98712.75;4968926;28;113547;-80
2024/02/09 00:10:18;;;;;;;14.13;5.50;;;;;;;13.34;68.18;98705.59;4969259;28;124393;-80
2024/02/09 00:12:47;;;;;;;14.50;4.97;;;;;;;13.35;68.17;98715.25;4958543;28;123890;-80
2024/02/09 00:15:18;;;;;;;16.23;5.10;;;;;;;13.32;68.27;98704.91;4965261;28;115482;-80
2024/02/09 00:17:47;;;;;;;19.80;5.78;;;;;;;13.34;68.18;98708.25;4967829;28;114421;-80
2024/02/09 00:20:14;;;;;;;13.63;5.45;;;;;;;13.34;68.23;98702.94;4957248;28;122955;-80
2024/02/09 00:22:42;;;;;;;14.32;5.20;;;;;;;13.34;68.09;98697.63;4972900;28;124348;-80
2024/02/09 00:25:10;;;;;;;14.18;5.53;;;;;;;13.35;68.12;98701.94;4981103;28;114360;-80
2024/02/09 00:27:38;;;;;;;11.98;5.40;;;;;;;13.34;68.18;98697.63;4992783;28;113978;-81
2024/02/09 00:30:07;;;;;;;16.60;5.70;;;;;;;13.34;68.35;98684.34;4995464;28;124873;-79
2024/02/09 00:32:35;;;;;;;14.95;5.03;;;;;;;13.34;68.16;98688.81;5005628;28;123170;-79
2024/02/09 00:35:03;;;;;;;17.55;5.75;;;;;;;13.33;68.42;98679.97;4991014;28;113574;-79
2024/02/09 00:37:31;;;;;;;16.17;5.78;;;;;;;13.32;68.29;98673.00;4995342;28;116173;-80
2024/02/09 00:39:58;;;;;;;18.85;5.78;;;;;;;13.32;68.41;98659.72;4989433;28;124147;-80
2024/02/09 00:42:27;;;;;;;15.15;5.50;;;;;;;13.32;68.31;98657.06;4995808;28;123458;-80
2024/02/09 00:44:55;;;;;;;12.25;5.15;;;;;;;13.32;68.21;98659.72;4995045;28;113899;-80
2024/02/09 00:47:22;;;;;;;17.88;5.47;;;;;;;13.32;68.31;98657.06;4995633;28;113193;-79
2024/02/09 00:49:49;;;;;;;18.98;5.22;;;;;;;13.32;68.23;98657.06;4967031;28;123992;-79
2024/02/09 00:52:17;;;;;;;12.73;5.50;;;;;;;13.34;68.37;98649.78;4970086;28;124550;-80
2024/02/09 00:54:44;;;;;;;15.30;5.07;;;;;;;13.34;68.28;98639.13;4958198;28;114894;-81
2024/02/09 00:57:12;;;;;;;11.00;5.25;;;;;;;13.35;68.23;98630.16;4972327;28;113733;-80
2024/02/09 00:59:39;;;;;;;18.92;5.63;;;;;;;13.36;68.03;98631.84;4963776;28;123004;-80
2024/02/09 01:02:09;;;;;;;13.20;5.20;;;;;;;13.38;68.31;98629.91;4966497;28;123330;-80
2024/02/09 01:04:38;;;;;;;10.55;4.70;;;;;;;13.39;68.31;98636.91;4968469;28;114488;-80
2024/02/09 01:07:09;;;;;;;14.43;5.35;;;;;;;13.39;68.31;98622.75;4948928;28;114677;-80
2024/02/09 01:09:37;;;;;;;16.45;5.40;;;;;;;13.40;68.25;98619.13;4969659;28;124467;-80
2024/02/09 02:45:36;;;;;;;9.73;4.57;;;;;;;13.37;68.30;98495.28;4970048;28;113744;-80
2024/02/09 03:04:40;;;;;;;13.70;4.57;;;;;;;13.29;67.98;98454.41;4979462;28;114882;-79
2024/02/09 03:07:07;;;;;;;12.45;3.88;;;;;;;13.28;68.03;98453.59;4983520;28;114599;-79
2024/02/09 03:09:54;;;;;;;8.43;4.13;;;;;;;13.26;67.98;98444.94;4973818;28;124160;-79
2024/02/09 03:12:22;;;;;;;12.10;4.03;;;;;;;13.26;68.06;98444.94;4976850;28;122048;-80
2024/02/09 03:14:49;;;;;;;12.35;3.85;;;;;;;13.26;68.00;98439.63;4978080;28;112423;-80
2024/02/09 03:17:16;;;;;;;11.73;4.20;;;;;;;13.25;68.17;98436.09;4972184;28;113368;-80
2024/02/09 03:19:44;;;;;;;10.73;3.70;;;;;;;13.26;68.08;98428.97;4955623;28;123125;-79
2024/02/09 03:22:11;;;;;;;11.57;3.80;;;;;;;13.25;68.10;98436.09;4959200;28;123741;-80
2024/02/09 03:24:40;;;;;;;11.70;3.80;;;;;;;13.26;68.13;98434.28;4985112;28;113383;-80
2024/02/09 03:27:08;;;;;;;14.45;4.13;;;;;;;13.26;68.26;98428.97;4965138;28;114082;-80
2024/02/09 03:29:39;;;;;;;9.13;4.10;;;;;;;13.26;68.24;98426.31;4962295;28;123940;-80
2024/02/09 03:32:07;;;;;;;9.68;3.75;;;;;;;13.27;68.06;98425.31;4967794;28;123878;-80
2024/02/09 03:34:34;;;;;;;11.20;3.70;;;;;;;13.27;68.17;98427.97;4966297;28;114244;-80
2024/02/09 03:37:01;;;;;;;11.00;3.83;;;;;;;13.26;68.26;98426.31;4955147;28;113353;-80
2024/02/09 03:39:29;;;;;;;8.55;3.38;;;;;;;13.26;68.14;98421.00;4978865;28;124724;-80
2024/02/09 03:41:56;;;;;;;10.05;3.80;;;;;;;13.26;68.29;98423.66;4952598;28;123412;-80
2024/02/09 03:44:23;;;;;;;8.27;3.28;;;;;;;13.28;68.20;98415.50;4960136;28;115302;-80
2024/02/09 03:46:50;;;;;;;8.05;3.45;;;;;;;13.27;68.14;98413.84;4961272;28;114151;-80
2024/02/09 03:49:18;;;;;;;9.38;3.60;;;;;;;13.27;68.44;98409.38;4982784;28;124227;-80
2024/02/09 03:51:45;;;;;;;10.25;3.42;;;;;;;13.27;68.28;98414.69;4967704;28;123652;-80
2024/02/09 03:54:13;;;;;;;10.70;3.35;;;;;;;13.29;68.20;98406.56;4970066;28;114123;-80
2024/02/09 03:56:40;;;;;;;9.05;3.28;;;;;;;13.29;68.17;98402.09;4962078;28;114009;-80
2024/02/09 03:59:07;;;;;;;8.50;3.20;;;;;;;13.30;68.23;98398.50;4967446;28;123817;-80
2024/02/09 04:01:34;;;;;;;7.35;2.88;;;;;;;13.31;68.12;98394.84;4968142;28;122386;-81
2024/02/09 04:04:02;;;;;;;7.80;3.13;;;;;;;13.31;68.33;98394.84;4967091;28;113581;-80
2024/02/09 04:06:29;;;;;;;7.65;2.55;;;;;;;13.32;68.16;98396.53;4973035;28;112929;-80
2024/02/09 04:08:57;;;;;;;6.43;2.72;;;;;;;13.32;68.15;98391.19;4970834;28;123003;-79
2024/02/09 04:11:28;;;;;;;8.27;2.65;;;;;;;13.34;68.16;98383.09;4962278;28;124180;-79
2024/02/09 04:13:55;;;;;;;8.27;2.65;;;;;;;13.34;68.28;98386.56;4972732;28;114009;-79
2024/02/09 04:16:23;;;;;;;8.20;2.80;;;;;;;13.35;68.20;98390.06;4963140;28;112616;-79
2024/02/09 04:18:50;;;;;;;6.75;2.22;;;;;;;13.35;68.16;98385.56;4951481;28;123704;-80
2024/02/09 04:21:17;;;;;;;5.50;2.47;;;;;;;13.35;68.29;98385.56;4964235;28;124401;-80
2024/02/09 04:23:44;;;;;;;3.80;2.30;;;;;;;13.36;68.20;98392.56;4977033;28;114255;-80
2024/02/09 04:26:12;;;;;;;6.05;2.40;;;;;;;13.36;68.28;98389.91;4960915;28;114293;-80
2024/02/09 04:28:39;;;;;;;5.38;2.05;;;;;;;13.38;68.22;98395.09;4962246;28;123814;-80
2024/02/09 04:31:06;;;;;;;4.25;2.05;;;;;;;13.38;68.25;98385.28;4971922;28;123259;-80
2024/02/09 04:33:33;;;;;;;6.00;2.30;;;;;;;13.37;68.27;98383.63;4971549;28;114966;-80
2024/02/09 04:36:01;;;;;;;8.15;2.20;;;;;;;13.38;68.35;98387.94;4972317;28;114782;-80
2024/02/09 04:38:28;;;;;;;6.35;2.20;;;;;;;13.38;68.24;98384.47;4958401;28;123529;-80
2024/02/09 04:40:56;;;;;;;5.85;2.20;;;;;;;13.37;68.51;98378.31;4986335;28;123055;-80
2024/02/09 04:43:23;;;;;;;5.45;2.40;;;;;;;13.38;68.26;98379.16;4976365;28;114078;-80
2024/02/09 04:45:51;;;;;;;6.18;2.28;;;;;;;13.39;68.17;98376.34;4973700;28;112794;-80
2024/02/09 04:48:18;;;;;;;5.80;2.47;;;;;;;13.40;68.29;98377.16;4975952;28;124627;-80
2024/02/09 04:50:47;;;;;;;6.35;2.30;;;;;;;13.41;68.22;98384.16;4970212;28;123765;-80
2024/02/09 04:53:15;;;;;;;7.05;2.08;;;;;;;13.41;68.23;98379.69;4968054;28;114012;-80
2024/02/09 04:55:43;;;;;;;3.90;2.20;;;;;;;13.42;68.17;98381.34;4957343;28;114046;-80
2024/02/09 04:58:11;;;;;;;5.00;2.22;;;;;;;13.42;68.28;98372.53;4974265;28;123806;-80
2024/02/09 05:00:38;;;;;;;4.43;2.08;;;;;;;13.42;68.08;98370.72;4967423;28;124194;-80
2024/02/09 05:03:06;;;;;;;4.68;2.20;;;;;;;13.43;68.25;98372.41;4976767;28;113733;-80
2024/02/09 05:05:33;;;;;;;5.15;2.22;;;;;;;13.43;68.15;98372.41;5001385;28;113176;-80
2024/02/09 05:08:01;;;;;;;4.93;2.05;;;;;;;13.42;68.02;98365.38;4987553;28;124629;-80
2024/02/09 05:10:28;;;;;;;5.95;2.03;;;;;;;13.43;68.05;98364.41;4983735;28;122098;-80
2024/02/09 05:13:02;;;;;;;6.88;2.20;;;;;;;13.43;67.95;98367.06;4953234;28;113462;-80
2024/02/09 05:15:30;;;;;;;5.00;1.70;;;;;;;13.42;68.12;98365.38;4969875;28;114319;-80
2024/02/09 05:17:58;;;;;;;4.63;2.00;;;;;;;13.42;68.19;98364.56;4960197;28;121948;-80
2024/02/09 05:20:26;;;;;;;4.70;2.28;;;;;;;13.41;68.16;98363.72;4993524;28;123339;-80
2024/02/09 05:22:53;;;;;;;6.07;2.10;;;;;;;13.42;68.15;98349.44;4988431;28;117244;-79
2024/02/09 05:25:23;;;;;;;3.08;1.90;;;;;;;13.42;68.10;98349.44;4987329;28;115381;-79
2024/02/09 05:27:50;;;;;;;4.18;1.83;;;;;;;13.42;68.00;98348.59;4995428;28;125719;-79
2024/02/09 05:30:17;;;;;;;3.65;1.80;;;;;;;13.41;67.98;98347.78;4995552;28;124869;-80
2024/02/09 05:32:45;;;;;;;6.18;1.85;;;;;;;13.40;67.86;98348.75;4991170;28;112734;-80
2024/02/09 05:35:13;;;;;;;3.90;1.88;;;;;;;13.40;67.89;98338.13;4984885;28;113783;-80
2024/02/09 05:37:40;;;;;;;5.82;2.05;;;;;;;13.40;67.85;98337.28;4989583;28;124541;-80
2024/02/09 05:40:09;;;;;;;4.38;2.00;;;;;;;13.39;67.72;98331.16;4984978;28;124364;-80
2024/02/09 05:42:36;;;;;;;3.95;1.90;;;;;;;13.39;67.88;98333.81;4964738;28;113533;-80
2024/02/09 05:45:05;;;;;;;4.97;1.90;;;;;;;13.38;67.71;98325.97;4970121;28;113974;-80
2024/02/09 05:47:33;;;;;;;3.33;1.70;;;;;;;13.37;67.69;98327.81;4964473;28;124427;-80
2024/02/09 05:50:00;;;;;;;7.88;2.20;;;;;;;13.36;67.74;98334.09;4960516;28;122720;-80
2024/02/09 05:52:28;;;;;;;5.40;1.90;;;;;;;13.36;67.63;98334.09;4963810;28;113962;-80
2024/02/09 05:54:56;;;;;;;3.40;1.60;;;;;;;13.35;67.85;98324.44;4971378;28;114815;-80
2024/02/09 05:57:31;;;;;;;3.10;1.70;;;;;;;13.34;68.03;98328.09;4965338;28;123125;-80
2024/02/09 05:59:58;;;;;;;;;;;;;;;13.31;67.65;98331.03;4964857;28;124172;-80
2024/02/09 06:02:27;;;;;;;4.10;1.58;;;;;;;13.32;67.73;98327.41;4971903;28;115245;-80
2024/02/09 06:04:54;;;;;;;3.33;1.70;;;;;;;13.32;67.63;98329.22;4971445;28;113358;-80
2024/02/09 06:07:24;;;;;;;5.30;2.00;;;;;;;13.31;67.71;98325.72;4972953;28;123787;-80
2024/02/09 06:09:51;;;;;;;3.72;1.50;;;;;;;13.31;67.82;98331.03;4971329;28;125941;-80
2024/02/09 06:12:19;;;;;;;4.20;1.73;;;;;;;13.31;67.88;98320.41;4969514;28;114044;-80
2024/02/09 06:14:46;;;;;;;7.28;1.80;;;;;;;13.31;67.73;98325.72;4962537;28;113225;-80
2024/02/09 06:17:13;;;;;;;5.97;1.80;;;;;;;13.33;67.76;98323.75;4964529;28;124706;-80
2024/02/09 06:19:40;;;;;;;3.58;1.63;;;;;;;13.34;67.86;98325.44;4963016;28;123977;-80
2024/02/09 06:22:10;;;;;;;4.18;1.90;;;;;;;13.35;67.82;98310.31;4966170;28;114380;-80
2024/02/09 06:24:38;;;;;;;7.25;2.15;;;;;;;13.36;67.84;98312.81;4983370;28;113479;-81
2024/02/09 06:27:05;;;;;;;3.53;1.98;;;;;;;13.36;67.65;98318.13;4968430;28;123531;-80
2024/02/09 06:29:32;;;;;;;2.47;1.80;;;;;;;13.37;67.63;98319.81;4961297;28;123676;-80
2024/02/09 06:32:00;;;;;;;6.53;1.70;;;;;;;13.38;67.63;98321.47;4944293;28;113578;-80
2024/02/09 06:34:28;;;;;;;4.63;1.83;;;;;;;13.38;67.69;98310.84;4972132;28;114380;-80
2024/02/09 06:36:56;;;;;;;4.47;2.00;;;;;;;13.38;67.69;98321.47;4969055;28;124145;-80
2024/02/09 06:39:24;;;;;;;4.50;1.80;;;;;;;13.40;67.80;98324.00;4960422;28;123903;-80
2024/02/09 06:41:51;;;;;;;4.70;1.77;;;;;;;13.40;67.63;98330.13;4964972;28;114317;-80
2024/02/09 06:44:18;;;;;;;6.95;1.90;;;;;;;13.41;67.57;98320.34;4970348;28;113469;-80
2024/02/09 06:46:46;;;;;;;3.30;1.65;;;;;;;13.41;67.67;98325.66;4968157;28;123858;-80
2024/02/09 06:49:13;;;;;;;3.75;1.58;;;;;;;13.40;67.52;98322.16;4982749;28;123131;-80
2024/02/09 06:51:45;;;;;;;3.40;1.40;;;;;;;13.40;67.73;98319.50;4961593;28;114023;-80
2024/02/09 06:54:12;;;;;;;3.58;1.73;;;;;;;13.42;67.61;98328.16;4952044;28;112847;-80
2024/02/09 06:56:40;;;;;;;4.75;1.80;;;;;;;13.43;67.68;98318.38;4983210;28;123516;-80
2024/02/09 06:59:09;;;;;;;3.78;1.40;;;;;;;13.43;67.64;98324.53;4987312;28;122829;-79
2024/02/09 07:01:39;;;;;;;3.38;1.40;;;;;;;13.45;67.65;98327.06;4974007;28;113669;-79
2024/02/09 07:04:08;;;;;;;7.18;1.63;;;;;;;13.47;67.56;98326.88;4966202;28;114725;-80
2024/02/09 07:06:37;;;;;;;2.63;1.55;;;;;;;13.47;67.45;98329.53;4961198;28;124112;-80
2024/02/09 07:09:07;;;;;;;2.83;1.30;;;;;;;13.47;67.78;98327.75;4969811;28;123873;-80
2024/02/09 07:11:34;;;;;;;4.93;1.50;;;;;;;13.50;67.67;98323.94;4973218;28;114285;-80
2024/02/09 07:14:01;;;;;;;3.55;1.58;;;;;;;13.50;67.57;98329.25;4978713;28;114149;-80
2024/02/09 07:16:30;;;;;;;3.65;1.20;;;;;;;13.52;67.58;98332.59;4964808;28;125309;-80
2024/02/09 07:18:58;;;;;;;7.20;1.20;;;;;;;13.53;67.32;98328.97;4944456;28;123218;-79
2024/02/09 07:21:26;;;;;;;2.55;1.10;;;;;;;13.53;67.44;98329.78;4965929;28;114541;-79
2024/02/09 07:23:53;;;;;;;4.57;1.30;;;;;;;13.55;67.62;98321.66;4960240;28;113163;-80
2024/02/09 07:26:22;;;;;;;2.83;1.10;;;;;;;13.57;67.63;98322.34;4959958;28;124328;-80
2024/02/09 07:28:50;;;;;;;3.38;1.30;;;;;;;13.57;67.26;98325.84;4955800;28;123324;-80
2024/02/09 07:31:18;;;;;;;5.35;1.35;;;;;;;13.58;67.54;98326.66;4968627;28;114164;-80
2024/02/09 07:33:46;;;;;;;4.18;1.30;;;;;;;13.60;67.44;98330.03;4985887;28;114253;-80
2024/02/09 07:36:14;;;;;;;4.22;1.50;;;;;;;13.61;67.45;98321.06;4965908;28;123912;-80
2024/02/09 07:38:41;;;;;;;3.63;1.33;;;;;;;13.62;67.32;98320.09;4991898;28;123894;-79
2024/02/09 07:41:12;;;;;;;4.55;1.60;;;;;;;13.62;67.43;98323.56;4982124;28;113498;-79
2024/02/09 07:43:40;;;;;;;5.85;1.60;;;;;;;13.64;67.43;98331.41;4970944;28;114126;-79
2024/02/09 07:46:07;;;;;;;5.57;1.40;;;;;;;13.65;67.39;98325.06;4969157;28;124014;-79
2024/02/09 07:48:35;;;;;;;4.95;1.67;;;;;;;13.68;67.50;98332.78;4962665;28;123543;-79
2024/02/09 07:51:04;;;;;;;6.72;1.23;;;;;;;13.68;67.35;98327.44;4971489;28;114737;-79
2024/02/09 07:53:31;;;;;;;2.90;1.27;;;;;;;13.68;67.33;98322.13;4962143;28;114392;-79
2024/02/09 07:55:59;;;;;;;4.22;1.33;;;;;;;13.70;67.50;98325.47;4971003;28;123926;-79
2024/02/09 07:58:26;;;;;;;2.60;1.30;;;;;;;13.71;67.27;98320.97;4972308;28;124100;-79
2024/02/09 08:00:54;;;;;;;3.83;1.40;;;;;;;13.71;67.46;98327.16;4965686;28;112723;-80
2024/02/09 08:03:24;;;;;;;4.88;1.30;;;;;;;13.72;67.39;98323.50;4963460;28;114025;-79
2024/02/09 08:05:51;;;;;;;3.67;1.30;;;;;;;13.73;67.45;98335.81;4970700;28;123512;-79
2024/02/09 08:08:19;;;;;;;3.00;1.20;;;;;;;13.74;67.27;98331.31;4965914;28;123768;-79
2024/02/09 08:10:48;;;;;;;4.72;1.65;;;;;;;13.76;67.45;98330.19;4970901;28;114023;-79
2024/02/09 08:13:16;;;;;;;5.95;1.52;;;;;;;13.78;67.41;98328.19;4965032;28;114958;-79
2024/02/09 08:15:45;;;;;;;6.38;1.60;;;;;;;13.79;67.43;98324.56;4977679;28;123960;-79
2024/02/09 08:18:13;;;;;;;2.40;1.20;;;;;;;13.83;67.50;98333.09;4963650;28;121836;-79
2024/02/09 08:20:41;;;;;;;4.07;1.50;;;;;;;13.83;67.29;98333.91;4968739;28;114002;-79
2024/02/09 08:23:08;;;;;;;3.08;1.35;;;;;;;13.86;67.21;98338.09;4991861;28;113432;-79
2024/02/09 08:25:36;;;;;;;6.70;1.88;;;;;;;13.89;67.42;98339.63;4978839;28;123855;-78
2024/02/09 08:28:03;;;;;;;3.50;1.33;;;;;;;13.90;67.41;98335.97;4985648;28;123957;-79
2024/02/09 08:30:30;;;;;;;4.28;1.50;;;;;;;13.91;67.44;98332.31;4973643;28;113601;-79
2024/02/09 08:32:57;;;;;;;3.65;1.48;;;;;;;13.93;67.37;98330.34;4975930;28;113864;-79
2024/02/09 08:35:26;;;;;;;6.18;1.50;;;;;;;13.95;67.47;98333.69;4967213;28;122255;-79
2024/02/09 08:37:53;;;;;;;4.05;1.48;;;;;;;13.97;67.39;98337.03;4973896;28;123263;-79
2024/02/09 08:40:20;;;;;;;5.78;1.50;;;;;;;13.99;67.48;98337.72;4975159;28;115294;-79
2024/02/09 08:42:48;;;;;;;5.03;1.40;;;;;;;14.00;67.35;98336.72;4946776;28;114516;-79
2024/02/09 08:45:16;;;;;;;4.00;1.38;;;;;;;14.02;67.54;98340.06;4969554;28;122266;-80
2024/02/09 08:47:43;;;;;;;5.35;1.58;;;;;;;14.06;67.37;98330.78;4971916;28;122965;-79
2024/02/09 08:50:11;;;;;;;6.20;1.60;;;;;;;14.08;67.51;98339.44;4961291;28;114231;-79
2024/02/09 08:52:38;;;;;;;4.88;1.40;;;;;;;14.11;67.24;98336.50;4965131;28;114244;-79
2024/02/09 08:55:06;;;;;;;3.35;1.35;;;;;;;14.13;67.30;98337.19;4962160;28;122877;-79
2024/02/09 08:57:33;;;;;;;7.22;1.30;;;;;;;14.16;67.39;98326.19;4967768;28;123443;-80
2024/02/09 09:00:00;;;;;;;5.78;1.80;;;;;;;14.21;67.31;98339.06;4961046;28;114248;-79
2024/02/09 09:02:29;;;;;;;3.58;1.60;;;;;;;14.27;67.38;98337.63;4965705;28;113233;-81
2024/02/09 09:04:57;;;;;;;2.92;1.25;;;;;;;14.31;67.41;98338.97;4971245;28;121800;-80
2024/02/09 09:07:24;;;;;;;3.88;1.52;;;;;;;14.36;67.61;98337.50;4967166;28;123398;-80
2024/02/09 09:09:52;;;;;;;7.30;1.60;;;;;;;14.43;67.43;98335.09;4959978;28;113346;-80
2024/02/09 09:12:19;;;;;;;6.68;1.88;;;;;;;14.47;67.33;98333.78;4960850;28;114334;-81
2024/02/09 09:14:46;;;;;;;3.30;1.50;;;;;;;14.52;67.29;98335.94;4973401;28;124463;-81
2024/02/09 09:17:14;;;;;;;6.20;1.45;;;;;;;14.56;67.26;98330.19;4965090;28;124082;-81
2024/02/09 09:19:51;;;;;;;4.05;1.50;;;;;;;14.57;67.18;98334.53;4975485;28;114036;-81
2024/02/09 09:22:19;;;;;;;3.92;1.48;;;;;;;14.62;67.23;98341.22;4961802;28;113890;-81
2024/02/09 09:24:46;;;;;;;3.72;1.60;;;;;;;14.65;67.23;98341.72;4964721;28;123823;-80
2024/02/09 09:27:15;;;;;;;4.07;1.42;;;;;;;14.67;67.25;98339.75;4960734;28;123483;-81
2024/02/09 09:29:42;;;;;;;3.63;1.45;;;;;;;14.71;67.17;98346.47;4943779;28;115638;-80
2024/02/09 09:32:09;;;;;;;5.85;1.60;;;;;;;14.75;67.05;98349.66;4954940;28;114035;-80
2024/02/09 09:34:37;;;;;;;3.40;1.50;;;;;;;14.77;67.19;98350.31;4982398;28;98975;-80
2024/02/09 09:37:06;;;;;;;6.05;1.52;;;;;;;14.78;67.11;98347.47;4955481;28;124562;-80
2024/02/09 09:39:33;;;;;;;5.03;1.65;;;;;;;14.79;66.95;98348.31;4964384;28;114271;-80
2024/02/09 09:42:00;;;;;;;3.10;1.10;;;;;;;14.82;66.95;98353.31;4960757;28;113094;-81
2024/02/09 09:44:28;;;;;;;7.43;1.60;;;;;;;14.83;67.03;98347.00;4957455;28;123901;-80
2024/02/09 09:46:57;;;;;;;5.72;1.35;;;;;;;14.87;67.06;98345.69;4972983;28;124601;-80
2024/02/09 09:49:28;;;;;;;3.97;1.52;;;;;;;14.90;67.04;98340.06;4961664;28;114008;-80
2024/02/09 09:51:58;;;;;;;3.97;1.52;;;;;;;14.92;66.83;98343.41;4963843;28;114007;-80
2024/02/09 09:54:29;;;;;;;3.65;2.47;;;;;;;14.95;67.12;98343.06;4960490;28;125892;-80
2024/02/09 09:56:59;;;;;;;3.42;1.40;;;;;;;14.99;66.82;98349.78;4966680;28;123302;-80
2024/02/09 09:59:28;;;;;;;5.05;1.50;;;;;;;15.03;66.68;98349.44;4962812;28;115293;-80
2024/02/09 10:01:56;;;;;;;7.22;1.52;;;;;;;15.05;66.65;98358.09;4942900;28;113635;-80
2024/02/09 10:04:24;;;;;;;5.57;1.50;;;;;;;15.08;66.77;98360.47;4978475;28;123692;-78
2024/02/09 10:06:51;;;;;;;5.03;1.50;;;;;;;15.10;66.46;98361.97;4960735;28;121971;-79
2024/02/09 10:09:19;;;;;;;3.28;1.55;;;;;;;15.11;66.52;98366.31;4963302;28;114132;-79
2024/02/09 10:11:48;;;;;;;3.95;1.45;;;;;;;15.14;66.56;98357.16;4964253;28;114203;-79
2024/02/09 10:14:16;;;;;;;6.97;1.40;;;;;;;15.17;66.59;98362.19;4975972;28;123850;-79
2024/02/09 10:16:48;;;;;;;4.45;1.70;;;;;;;15.21;66.42;98374.19;4977547;28;122632;-79
2024/02/09 10:19:16;;;;;;;6.65;1.70;;;;;;;15.25;66.53;98370.22;4975878;28;114296;-79
2024/02/09 10:21:48;;;;;;;3.90;1.60;;;;;;;15.29;66.33;98366.22;4994897;28;115539;-79
2024/02/09 10:24:18;;;;;;;7.68;1.55;;;;;;;15.33;66.38;98370.25;5002211;28;123806;-79
2024/02/09 10:26:47;;;;;;;2.88;1.40;;;;;;;15.37;66.23;98378.78;4986185;28;123515;-78
2024/02/09 10:29:15;;;;;;;4.53;1.35;;;;;;;15.43;66.16;98366.63;4988709;28;112750;-79
2024/02/09 10:31:45;;;;;;;3.50;1.40;;;;;;;15.44;65.97;98369.13;4986768;28;113430;-79
2024/02/09 10:34:13;;;;;;;4.18;1.40;;;;;;;15.49;66.07;98371.31;4989898;28;124287;-79
2024/02/09 10:36:40;;;;;;;3.95;1.30;;;;;;;15.50;65.93;98371.16;4988616;28;122680;-78
2024/02/09 10:39:08;;;;;;;3.60;1.33;;;;;;;15.53;65.79;98367.31;4989100;28;114762;-79
2024/02/09 10:41:37;;;;;;;3.58;1.50;;;;;;;15.56;65.84;98362.50;4978261;28;113323;-79
2024/02/09 10:44:08;;;;;;;2.90;1.30;;;;;;;15.58;65.53;98365.84;4957032;28;122952;-79
2024/02/09 10:46:38;;;;;;;39.30;3.22;;;;;;;15.61;65.62;98370.00;4969110;28;122557;-79
2024/02/09 10:49:08;;;;;;;4.18;1.60;;;;;;;15.65;65.50;98371.38;4967125;28;113742;-79
2024/02/09 10:51:40;;;;;;;3.47;1.17;;;;;;;15.66;65.47;98373.03;4961568;28;113554;-79
2024/02/09 10:54:18;;;;;;;3.30;1.15;;;;;;;15.69;65.43;98374.53;4968210;28;123816;-79
2024/02/09 10:56:48;;;;;;;3.03;1.17;;;;;;;15.72;65.33;98372.38;4962877;28;124022;-78
2024/02/09 10:59:17;;;;;;;4.25;1.10;;;;;;;15.73;65.63;98379.41;4965564;28;114167;-79
2024/02/09 11:01:45;;;;;;;2.10;1.00;;;;;;;15.75;65.38;98374.75;4958446;28;113503;-79
2024/02/09 11:04:12;;;;;;;2.17;1.10;;;;;;;15.79;65.39;98385.13;4965993;28;123642;-79
2024/02/09 11:06:41;;;;;;;1.85;1.08;;;;;;;15.82;65.31;98387.44;4962923;28;124580;-79
2024/02/09 11:09:10;;;;;;;3.08;1.10;;;;;;;15.86;65.40;98391.44;4977775;28;115834;-79
2024/02/09 11:11:39;;;;;;;2.53;1.02;;;;;;;15.88;65.21;98392.13;4969009;28;114518;-79
2024/02/09 11:14:08;;;;;;;4.03;1.50;;;;;;;15.91;64.96;98391.78;4959965;28;122702;-79
2024/02/09 11:16:48;;;;;;;3.65;1.40;;;;;;;15.93;64.96;98384.47;4953443;28;124207;-79
2024/02/09 11:19:17;;;;;;;2.45;1.40;;;;;;;15.98;65.14;98387.47;4952240;28;112342;-79
2024/02/09 11:21:52;;;;;;;4.28;1.40;;;;;;;16.02;64.71;98388.00;4955797;28;113125;-79
2024/02/09 11:24:20;;;;;;;2.28;1.15;;;;;;;16.04;64.61;98389.47;4962257;28;123958;-79
2024/02/09 11:26:48;;;;;;;7.57;2.03;;;;;;;16.06;64.40;98395.50;4969976;28;124514;-79
2024/02/09 11:29:19;;;;;;;3.90;1.60;;;;;;;16.06;64.16;98392.81;4981984;28;113678;-79
2024/02/09 11:31:55;;;;;;;5.90;1.92;;;;;;;16.07;63.85;98394.50;4967372;28;113437;-79
2024/02/09 11:34:24;;;;;;;5.50;1.60;;;;;;;16.07;64.02;98391.84;4960092;28;124210;-79
2024/02/09 11:36:53;;;;;;;5.82;1.70;;;;;;;16.08;63.92;98388.16;4963003;28;124032;-79
2024/02/09 11:39:23;;;;;;;4.53;1.30;;;;;;;16.10;63.65;98396.00;4960518;28;114170;-79
2024/02/09 11:41:51;;;;;;;5.60;2.00;;;;;;;16.10;63.71;98391.50;4964846;28;114169;-79
2024/02/09 11:44:19;;;;;;;5.25;1.90;;;;;;;16.11;63.68;98387.84;4960817;28;123053;-78
2024/02/09 11:46:47;;;;;;;2.80;1.40;;;;;;;16.13;63.46;98385.81;4970770;28;123937;-79
2024/02/09 11:49:15;;;;;;;7.15;1.73;;;;;;;16.15;63.63;98381.16;4967555;28;113906;-78
2024/02/09 11:51:42;;;;;;;4.03;1.70;;;;;;;16.18;63.41;98384.50;4972391;28;113301;-79
2024/02/09 11:54:14;;;;;;;8.07;1.83;;;;;;;16.21;63.22;98386.84;4961223;28;123490;-79
2024/02/09 11:56:44;;;;;;;5.15;2.00;;;;;;;16.23;63.18;98391.00;4963552;28;125450;-79
2024/02/09 11:59:12;;;;;;;3.35;1.40;;;;;;;16.25;63.44;98393.50;4963292;28;115219;-79
2024/02/09 12:01:42;;;;;;;3.25;1.20;;;;;;;16.29;63.17;98394.84;4967296;28;114879;-79
2024/02/09 12:04:11;;;;;;;2.45;1.10;;;;;;;16.29;63.33;98397.53;4968474;28;122505;-79
2024/02/09 12:06:39;;;;;;;3.42;1.30;;;;;;;16.28;63.31;98393.19;4965379;28;122900;-79
2024/02/09 12:09:09;;;;;;;5.55;1.70;;;;;;;16.27;63.42;98402.19;4969258;28;115231;-80
2024/02/09 12:11:41;;;;;;;6.23;1.70;;;;;;;16.25;63.03;98398.84;4963005;28;114510;-79
2024/02/09 12:14:09;;;;;;;6.05;1.80;;;;;;;16.21;62.95;98403.69;4960730;28;124150;-79
2024/02/09 12:16:36;;;;;;;5.55;1.60;;;;;;;16.15;62.98;98410.53;4953892;28;122316;-79
2024/02/09 12:19:03;;;;;;;6.75;1.90;;;;;;;16.12;63.05;98400.19;4965353;28;114462;-79
2024/02/09 12:21:31;;;;;;;5.95;1.80;;;;;;;16.09;63.12;98405.84;4971345;28;113710;-79
2024/02/09 12:23:58;;;;;;;3.20;1.67;;;;;;;16.10;63.17;98406.69;4966748;28;123885;-79
2024/02/09 12:26:25;;;;;;;6.30;1.85;;;;;;;16.10;63.02;98407.50;4970362;28;122025;-79
2024/02/09 12:28:56;;;;;;;7.28;2.05;;;;;;;16.10;63.17;98412.84;4970277;28;114122;-79
2024/02/09 12:31:24;;;;;;;4.07;2.10;;;;;;;16.09;63.36;98421.06;4970503;28;114439;-79
2024/02/09 12:33:52;;;;;;;9.57;2.30;;;;;;;16.07;63.24;98418.53;4962219;28;123139;-80
2024/02/09 12:36:20;;;;;;;10.13;2.17;;;;;;;16.07;63.36;98421.22;4969144;28;123303;-80
2024/02/09 12:39:05;;;;;;;4.30;2.13;;;;;;;16.06;63.44;98416.84;4967375;28;112622;-79
2024/02/09 12:41:32;;;;;;;5.97;2.08;;;;;;;16.06;63.38;98416.03;4959454;28;115852;-79
2024/02/09 12:43:59;;;;;;;5.65;2.42;;;;;;;16.07;63.45;98425.72;4968269;28;124366;-79
2024/02/09 12:46:31;;;;;;;7.18;2.05;;;;;;;16.09;63.55;98421.06;4974350;28;123283;-79
2024/02/09 12:48:59;;;;;;;6.95;2.22;;;;;;;16.09;63.38;98416.53;4968891;28;115051;-79
2024/02/09 12:51:31;;;;;;;6.75;2.25;;;;;;;16.10;63.50;98423.53;4961958;28;114735;-79
2024/02/09 12:53:58;;;;;;;8.60;1.85;;;;;;;16.09;63.44;98421.88;4978415;28;123152;-79
2024/02/09 12:56:26;;;;;;;5.70;2.20;;;;;;;16.11;63.45;98427.88;4963728;28;123345;-79
2024/02/09 12:58:53;;;;;;;6.50;2.20;;;;;;;16.13;63.46;98419.72;4960945;28;114606;-79
2024/02/09 13:01:21;;;;;;;7.72;2.10;;;;;;;16.15;63.47;98421.22;4965628;28;114912;-79
2024/02/09 13:03:49;;;;;;;4.78;2.13;;;;;;;16.19;63.35;98412.88;4967056;28;123070;-79
2024/02/09 13:06:16;;;;;;;6.60;2.10;;;;;;;16.20;63.24;98418.06;4967276;28;123798;-79
2024/02/09 13:08:44;;;;;;;4.60;1.70;;;;;;;16.22;63.13;98416.06;4954543;28;113304;-79
2024/02/09 13:11:11;;;;;;;3.78;1.65;;;;;;;16.25;63.10;98409.53;4964273;28;113353;-79
2024/02/09 13:13:39;;;;;;;8.50;1.73;;;;;;;16.28;63.29;98409.22;4969946;28;122465;-79
2024/02/09 13:16:12;;;;;;;4.38;1.45;;;;;;;16.33;63.11;98406.88;4972053;28;123721;-79
2024/02/09 13:18:39;;;;;;;4.28;1.80;;;;;;;16.35;62.98;98410.22;4999070;28;113116;-79